createdAt,value
2023-09-14T00:04:50.942Z,77.36
2023-09-14T00:09:49.853Z,77.06
2023-09-14T00:14:48.801Z,77.26
2023-09-14T00:19:47.714Z,77.76
2023-09-14T00:24:46.694Z,78.10
2023-09-14T00:29:45.653Z,77.80
2023-09-14T00:34:44.603Z,77.70
2023-09-14T00:39:43.555Z,77.46
2023-09-14T00:44:42.430Z,77.70
2023-09-14T00:49:41.458Z,77.29
2023-09-14T00:54:40.401Z,77.70
2023-09-14T00:59:39.344Z,77.09
2023-09-14T01:04:38.308Z,77.39
2023-09-14T01:09:37.285Z,77.09
2023-09-14T01:14:36.116Z,77.09
2023-09-14T01:19:35.114Z,77.29
2023-09-14T01:24:34.129Z,77.29
2023-09-14T01:29:32.955Z,77.09
2023-09-14T01:34:31.967Z,76.99
2023-09-14T01:39:30.911Z,76.69
2023-09-14T01:44:29.844Z,76.69
2023-09-14T01:49:28.746Z,76.72
2023-09-14T01:54:27.864Z,76.62
2023-09-14T01:59:26.726Z,76.72
2023-09-14T02:04:25.715Z,76.72
2023-09-14T02:09:24.566Z,76.72
2023-09-14T02:14:23.578Z,76.97
2023-09-14T02:19:22.465Z,77.37
2023-09-14T02:24:21.417Z,77.06
2023-09-14T02:29:20.477Z,77.17
2023-09-14T02:34:19.384Z,77.06
2023-09-14T02:39:18.320Z,76.97
2023-09-14T02:44:17.212Z,76.86
2023-09-14T02:49:16.236Z,76.05
2023-09-14T02:54:15.165Z,76.35
2023-09-14T02:59:14.085Z,76.39
2023-09-14T03:04:13.031Z,76.19
2023-09-14T03:09:11.990Z,76.09
2023-09-14T03:14:10.894Z,75.99
2023-09-14T03:19:09.894Z,75.92
2023-09-14T03:24:08.788Z,76.12
2023-09-14T03:29:07.780Z,75.92
2023-09-14T03:34:06.765Z,75.96
2023-09-14T03:39:05.706Z,75.85
2023-09-14T03:44:04.609Z,75.85
2023-09-14T03:49:03.711Z,75.85
2023-09-14T03:54:02.535Z,75.96
2023-09-14T03:59:01.435Z,76.09
2023-09-14T04:04:00.436Z,76.50
2023-09-14T04:08:59.381Z,76.54
2023-09-14T04:13:58.448Z,76.74
2023-09-14T04:18:57.274Z,76.94
2023-09-14T04:23:56.161Z,77.45
2023-09-14T04:28:55.117Z,77.28
2023-09-14T04:33:54.034Z,77.18
2023-09-14T04:38:52.984Z,77.18
2023-09-14T04:43:51.940Z,77.22
2023-09-14T04:48:50.870Z,76.81
2023-09-14T04:53:49.822Z,76.81
2023-09-14T04:58:49.024Z,77.25
2023-09-14T05:03:47.890Z,77.45
2023-09-14T05:08:47.073Z,77.97
2023-09-14T05:13:45.719Z,77.76
2023-09-14T05:18:44.961Z,77.86
2023-09-14T05:23:43.691Z,78.47
2023-09-14T05:28:42.586Z,78.67
2023-09-14T05:33:41.567Z,78.98
2023-09-14T05:38:40.450Z,78.88
2023-09-14T05:43:39.390Z,78.74
2023-09-14T05:48:38.291Z,78.84
2023-09-14T05:53:37.167Z,78.94
2023-09-14T05:58:36.241Z,78.84
2023-09-14T06:03:35.143Z,78.60
2023-09-14T06:08:34.171Z,78.40
2023-09-14T06:13:33.017Z,78.16
2023-09-14T06:18:31.990Z,78.16
2023-09-14T06:23:30.866Z,78.06
2023-09-14T06:28:29.883Z,77.65
2023-09-14T06:33:28.768Z,76.90
2023-09-14T06:38:27.927Z,77.01
2023-09-14T06:43:26.707Z,76.90
2023-09-14T06:48:25.625Z,76.16
2023-09-14T06:53:24.789Z,76.77
2023-09-14T06:58:23.617Z,76.83
2023-09-14T07:03:22.512Z,76.73
2023-09-14T07:08:21.660Z,76.03
2023-09-14T07:13:20.425Z,76.39
2023-09-14T07:18:19.337Z,76.09
2023-09-14T07:23:18.313Z,76.46
2023-09-14T07:28:17.294Z,75.14
2023-09-14T07:33:16.182Z,74.23
2023-09-14T07:38:15.084Z,73.93
2023-09-14T07:43:14.180Z,73.72
2023-09-14T07:48:13.144Z,74.70
2023-09-14T07:53:11.974Z,74.40
2023-09-14T07:58:10.970Z,74.10
2023-09-14T08:03:10.037Z,74.16
2023-09-14T08:08:08.916Z,74.06
2023-09-14T08:13:07.846Z,74.46
2023-09-14T08:18:07.058Z,74.33
2023-09-14T08:23:05.694Z,75.04
2023-09-14T08:28:04.664Z,74.43
2023-09-14T08:33:03.637Z,74.69
2023-09-14T08:38:02.586Z,75.71
2023-09-14T08:43:01.472Z,75.40
2023-09-14T08:48:00.519Z,74.36
2023-09-14T08:52:59.347Z,73.75
2023-09-14T08:57:58.429Z,73.25
2023-09-14T09:02:57.257Z,73.45
2023-09-14T09:07:56.497Z,74.05
2023-09-14T09:12:55.201Z,74.46
2023-09-14T09:17:54.133Z,74.56
2023-09-14T09:22:53.024Z,73.45
2023-09-14T09:27:52.090Z,71.64
2023-09-14T09:32:51.001Z,70.02
2023-09-14T09:37:49.940Z,72.11
2023-09-14T09:42:48.838Z,73.22
2023-09-14T09:47:47.808Z,72.47
2023-09-14T09:52:46.785Z,70.26
2023-09-14T09:57:45.686Z,70.97
2023-09-14T10:02:44.707Z,70.46
2023-09-14T10:07:43.555Z,68.04
2023-09-14T10:12:42.595Z,67.84
2023-09-14T10:17:41.520Z,70.15
2023-09-14T10:22:40.375Z,67.94
2023-09-14T10:27:39.426Z,67.94
2023-09-14T10:32:38.318Z,66.60
2023-09-14T10:37:37.389Z,67.20
2023-09-14T10:42:36.226Z,66.70
2023-09-14T10:47:35.210Z,67.20
2023-09-14T10:52:34.144Z,67.00
2023-09-14T10:57:33.206Z,65.39
2023-09-14T11:02:45.795Z,65.66
2023-09-14T11:07:31.083Z,65.96
2023-09-14T11:12:30.118Z,65.96
2023-09-14T11:17:28.887Z,65.66
2023-09-14T11:22:28.996Z,65.29
2023-09-14T11:27:27.025Z,66.19
2023-09-14T11:32:26.508Z,66.60
2023-09-14T11:37:25.235Z,65.79
2023-09-14T11:42:24.761Z,63.85
2023-09-14T11:47:26.849Z,63.45
2023-09-14T11:52:21.412Z,64.65
2023-09-14T11:57:20.482Z,64.05
2023-09-14T12:02:19.475Z,63.75
2023-09-14T12:07:18.379Z,63.54
2023-09-14T12:12:17.335Z,64.35
2023-09-14T12:17:16.267Z,65.16
2023-09-14T12:22:15.133Z,63.21
2023-09-14T12:27:14.648Z,61.60
2023-09-14T12:32:13.129Z,62.71
2023-09-14T12:37:11.982Z,65.19
2023-09-14T12:42:10.985Z,63.89
2023-09-14T12:47:09.957Z,62.98
2023-09-14T12:52:08.885Z,62.78
2023-09-14T12:57:07.805Z,61.65
2023-09-14T13:02:06.761Z,62.35
2023-09-14T13:07:05.826Z,62.55
2023-09-14T13:12:04.623Z,61.65
2023-09-14T13:17:03.713Z,60.84
2023-09-14T13:22:02.678Z,61.04
2023-09-14T13:27:01.582Z,61.31
2023-09-14T13:32:00.451Z,60.00
2023-09-14T13:36:59.774Z,59.60
2023-09-14T13:41:58.372Z,59.70
2023-09-14T13:46:57.294Z,59.30
2023-09-14T13:51:56.286Z,57.39
2023-09-14T13:56:55.255Z,58.29
2023-09-14T14:01:54.218Z,58.70
2023-09-14T14:06:53.084Z,58.80
2023-09-14T14:11:52.023Z,59.50
2023-09-14T14:16:51.013Z,61.61
2023-09-14T14:21:49.993Z,59.63
2023-09-14T14:26:49.156Z,58.53
2023-09-14T14:31:47.942Z,59.23
2023-09-14T14:36:46.792Z,59.03
2023-09-14T14:41:46.841Z,59.13
2023-09-14T14:46:44.848Z,58.53
2023-09-14T14:51:43.563Z,59.53
2023-09-14T14:56:42.522Z,59.23
2023-09-14T15:01:41.644Z,59.43
2023-09-14T15:06:40.522Z,59.43
2023-09-14T15:11:39.413Z,59.03
2023-09-14T15:16:38.695Z,59.13
2023-09-14T15:21:37.265Z,58.93
2023-09-14T15:26:36.212Z,56.31
2023-09-14T15:31:35.174Z,58.42
2023-09-14T15:36:34.119Z,58.33
2023-09-14T15:41:33.098Z,57.02
2023-09-14T15:46:32.109Z,56.82
2023-09-14T15:51:31.138Z,57.79
2023-09-14T15:56:29.869Z,58.20
2023-09-14T16:01:28.827Z,55.91
2023-09-14T16:06:27.821Z,57.42
2023-09-14T16:11:26.985Z,57.92
2023-09-14T16:16:25.798Z,58.02
2023-09-14T16:21:24.682Z,57.52
2023-09-14T16:26:23.602Z,58.73
2023-09-14T16:31:22.605Z,58.62
2023-09-14T16:36:21.460Z,58.73
2023-09-14T16:41:20.411Z,59.33
2023-09-14T16:46:19.461Z,60.03
2023-09-14T16:51:18.305Z,60.77
2023-09-14T16:56:17.263Z,61.27
2023-09-14T17:01:16.335Z,63.62
2023-09-14T17:06:15.169Z,67.68
2023-09-14T17:11:14.156Z,68.41
2023-09-14T17:16:13.198Z,69.92
2023-09-14T17:21:12.097Z,71.47
2023-09-14T17:26:11.056Z,71.30
2023-09-14T17:31:09.932Z,72.11
2023-09-14T17:36:08.845Z,72.44
2023-09-14T17:41:07.814Z,72.78
2023-09-14T17:46:06.766Z,72.88
2023-09-14T17:51:05.811Z,73.32
2023-09-14T17:56:04.619Z,72.81
2023-09-14T18:01:03.780Z,73.86
2023-09-14T18:06:04.681Z,74.80
2023-09-14T18:11:01.488Z,75.34
2023-09-14T18:16:00.448Z,75.75
2023-09-14T18:21:00.840Z,75.18
2023-09-14T18:25:58.326Z,74.63
2023-09-14T18:30:57.299Z,74.43
2023-09-14T18:35:56.597Z,75.21
2023-09-14T18:40:55.176Z,75.76
2023-09-14T18:45:54.100Z,75.21
2023-09-14T18:50:53.075Z,75.01
2023-09-14T18:55:52.101Z,75.96
2023-09-14T19:00:51.054Z,74.74
2023-09-14T19:05:49.914Z,75.04
2023-09-14T19:10:48.830Z,74.64
2023-09-14T19:15:47.883Z,75.55
2023-09-14T19:20:46.751Z,75.59
2023-09-14T19:25:45.696Z,74.24
2023-09-14T19:30:44.659Z,74.48
2023-09-14T19:35:43.646Z,75.82
2023-09-14T19:40:42.507Z,76.03
2023-09-14T19:45:41.575Z,76.54
2023-09-14T19:50:40.438Z,76.67
2023-09-14T19:55:39.366Z,77.56
2023-09-14T20:00:38.361Z,77.15
2023-09-14T20:05:37.358Z,76.10
2023-09-14T20:10:36.310Z,76.85
2023-09-14T20:15:35.224Z,76.75
2023-09-14T20:20:34.133Z,75.70
2023-09-14T20:25:33.061Z,75.39
2023-09-14T20:30:32.167Z,75.73
2023-09-14T20:35:31.025Z,75.93
2023-09-14T20:40:29.901Z,75.22
2023-09-14T20:45:28.900Z,76.48
2023-09-14T20:50:27.852Z,74.92
2023-09-14T20:55:26.756Z,74.82
2023-09-14T21:00:25.724Z,74.41
2023-09-14T21:05:24.626Z,74.48
2023-09-14T21:10:23.703Z,74.85
2023-09-14T21:15:22.550Z,75.09
2023-09-14T21:20:21.498Z,74.68
2023-09-14T21:25:20.458Z,74.24
2023-09-14T21:30:19.471Z,74.79
2023-09-14T21:35:18.321Z,74.92
2023-09-14T21:40:17.384Z,76.01
2023-09-14T21:45:16.282Z,75.67
2023-09-14T21:50:15.255Z,75.16
2023-09-14T21:55:14.251Z,74.85
2023-09-14T22:00:13.064Z,75.37
2023-09-14T22:05:12.074Z,76.31
2023-09-14T22:10:11.233Z,75.40
2023-09-14T22:15:09.963Z,76.65
2023-09-14T22:20:08.929Z,76.25
2023-09-14T22:25:07.855Z,78.36
2023-09-14T22:30:06.798Z,77.40
2023-09-14T22:35:05.711Z,77.55
2023-09-14T22:40:04.700Z,78.53
2023-09-14T22:45:03.637Z,77.48
2023-09-14T22:50:02.586Z,78.39
2023-09-14T22:55:01.609Z,78.91
2023-09-14T23:00:00.462Z,78.64
2023-09-14T23:04:59.431Z,77.37
2023-09-14T23:09:58.408Z,77.58
2023-09-14T23:14:57.365Z,77.21
2023-09-14T23:19:56.279Z,76.76
2023-09-14T23:24:55.246Z,76.50
2023-09-14T23:29:54.156Z,76.09
2023-09-14T23:34:53.120Z,77.04
2023-09-14T23:39:52.060Z,79.12
2023-09-14T23:44:50.962Z,77.75
2023-09-14T23:49:49.970Z,78.71
2023-09-14T23:54:48.937Z,79.25
2023-09-14T23:59:47.857Z,78.48
